Time;durP1;ratioP1;P1;durP2;ratioP2;P2;SDS_P1;SDS_P2;PMS_P1;PMS_P2;Temp;Humidity;BMP_temperature;BMP_pressure;BME280_temperature;BME280_humidity;BME280_pressure;Samples;Min_cycle;Max_cycle;Signal;HPM_P1;HPM_P2
2021/10/23 00:00:57;;;;;;;25.55;13.13;;;10.70;99.90;;;;;;5052650;28;20028;-64
2021/10/23 00:03:23;;;;;;;25.48;15.57;;;10.60;99.90;;;;;;5052875;28;20040;-66
2021/10/23 00:05:49;;;;;;;17.42;10.50;;;10.60;99.90;;;;;;5046155;28;20024;-67
2021/10/23 00:08:15;;;;;;;21.23;13.18;;;10.50;99.90;;;;;;5052942;28;20112;-65
2021/10/23 00:10:41;;;;;;;22.30;13.35;;;10.50;99.90;;;;;;5051535;28;20024;-64
2021/10/23 00:13:07;;;;;;;7.20;3.05;;;10.40;99.90;;;;;;5052325;28;20404;-64
2021/10/23 00:15:33;;;;;;;10.35;6.50;;;10.40;99.90;;;;;;5051716;28;20434;-67
2021/10/23 00:17:59;;;;;;;8.27;4.97;;;10.40;99.90;;;;;;5053081;28;20025;-67
2021/10/23 00:20:25;;;;;;;6.60;4.30;;;10.30;99.90;;;;;;5052802;28;20086;-66
2021/10/23 00:22:51;;;;;;;6.85;3.80;;;10.30;99.90;;;;;;5052640;28;20074;-65
2021/10/23 00:25:19;;;;;;;11.32;7.75;;;10.30;99.90;;;;;;5052989;28;20432;-64
2021/10/23 00:27:45;;;;;;;9.57;4.88;;;10.20;99.90;;;;;;5051919;28;20037;-65
2021/10/23 00:30:12;;;;;;;5.05;3.08;;;10.20;99.90;;;;;;5052262;28;20473;-64
2021/10/23 00:32:38;;;;;;;9.15;5.75;;;10.20;99.90;;;;;;5051435;28;20067;-65
2021/10/23 00:35:06;;;;;;;7.32;3.45;;;10.20;99.90;;;;;;5051953;28;20044;-65
2021/10/23 00:37:32;;;;;;;12.07;5.70;;;10.10;99.90;;;;;;5051707;28;20029;-66
2021/10/23 00:39:57;;;;;;;6.85;3.42;;;10.10;99.90;;;;;;5052775;28;20056;-66
2021/10/23 00:42:23;;;;;;;5.00;2.58;;;10.10;99.90;;;;;;5046325;28;20055;-65
2021/10/23 00:44:49;;;;;;;7.63;4.75;;;10.10;99.90;;;;;;5027794;28;20463;-63
2021/10/23 00:47:17;;;;;;;3.53;2.25;;;10.10;99.90;;;;;;5051738;28;20029;-65
2021/10/23 00:49:46;;;;;;;7.10;3.30;;;10.10;99.90;;;;;;5052531;28;20061;-64
2021/10/23 00:52:12;;;;;;;3.38;2.53;;;10.10;99.90;;;;;;5040028;28;20032;-66
2021/10/23 00:54:39;;;;;;;8.52;3.45;;;10.10;99.90;;;;;;5052753;28;20033;-64
2021/10/23 00:57:06;;;;;;;6.05;3.50;;;10.10;99.90;;;;;;5051358;28;20458;-65
2021/10/23 00:59:33;;;;;;;5.82;3.40;;;10.10;99.90;;;;;;5052157;28;20037;-66
2021/10/23 01:01:59;;;;;;;7.32;3.42;;;10.10;99.90;;;;;;5051570;28;20028;-64
2021/10/23 01:04:25;;;;;;;5.85;3.20;;;10.00;99.90;;;;;;5052012;28;20036;-67
2021/10/23 01:06:51;;;;;;;5.22;3.00;;;10.00;99.90;;;;;;5050556;28;20036;-64
2021/10/23 01:09:18;;;;;;;5.93;3.08;;;10.00;99.90;;;;;;5052260;28;20021;-64
2021/10/23 01:11:45;;;;;;;11.48;6.07;;;10.10;99.90;;;;;;5050476;28;20060;-64
2021/10/23 01:14:17;;;;;;;24.85;13.13;;;10.00;99.90;;;;;;5050649;28;20044;-64
2021/10/23 01:16:44;;;;;;;16.17;9.65;;;10.00;99.90;;;;;;5051263;28;20036;-66
2021/10/23 01:19:11;;;;;;;42.10;21.70;;;10.00;99.90;;;;;;5046410;28;20185;-65
2021/10/23 01:21:38;;;;;;;64.97;33.00;;;10.10;99.90;;;;;;5050910;28;20037;-64
2021/10/23 01:24:08;;;;;;;31.08;17.13;;;10.00;99.90;;;;;;5045105;28;20112;-66
2021/10/23 01:26:38;;;;;;;18.23;10.95;;;10.10;99.90;;;;;;5049266;28;20017;-66
2021/10/23 01:29:05;;;;;;;30.08;15.10;;;10.10;99.90;;;;;;5047388;28;20040;-65
2021/10/23 01:31:32;;;;;;;23.38;11.88;;;10.10;99.90;;;;;;5049315;28;20059;-64
2021/10/23 01:33:59;;;;;;;28.58;14.85;;;10.10;99.90;;;;;;5051106;28;20029;-65
2021/10/23 01:36:24;;;;;;;36.33;17.58;;;10.10;99.90;;;;;;5050553;28;20123;-65
2021/10/23 01:38:51;;;;;;;25.08;12.68;;;10.10;99.90;;;;;;5050513;28;20124;-65
2021/10/23 01:41:17;;;;;;;46.50;21.17;;;10.10;99.90;;;;;;5048852;28;20025;-64
2021/10/23 01:43:43;;;;;;;68.03;30.25;;;10.10;99.90;;;;;;5049656;28;20520;-65
2021/10/23 01:46:09;;;;;;;46.85;22.25;;;10.10;99.90;;;;;;5049941;28;20029;-67
2021/10/23 01:48:37;;;;;;;26.13;14.70;;;10.10;99.90;;;;;;5050731;28;20359;-65
2021/10/23 01:51:04;;;;;;;20.35;10.77;;;10.10;99.90;;;;;;5050030;28;20356;-66
2021/10/23 01:53:34;;;;;;;11.82;4.68;;;10.10;99.90;;;;;;5050418;28;20033;-64
2021/10/23 01:56:03;;;;;;;13.05;7.65;;;10.10;99.90;;;;;;5043766;28;20483;-64
2021/10/23 01:58:30;;;;;;;16.27;8.35;;;10.10;99.90;;;;;;5046489;28;20025;-65
2021/10/23 02:00:57;;;;;;;8.02;4.45;;;10.10;99.90;;;;;;5051431;28;20108;-65
2021/10/23 02:03:22;;;;;;;3.97;2.58;;;10.10;99.90;;;;;;5050420;28;20466;-65
2021/10/23 02:05:48;;;;;;;7.20;2.78;;;10.10;99.90;;;;;;5048213;28;20043;-65
2021/10/23 02:08:14;;;;;;;6.93;3.33;;;10.10;99.90;;;;;;5049906;28;20104;-66
2021/10/23 02:10:40;;;;;;;8.68;4.22;;;10.10;99.90;;;;;;5050507;28;20029;-63
2021/10/23 02:13:05;;;;;;;6.25;3.47;;;10.10;99.90;;;;;;5029513;28;20044;-64
2021/10/23 02:15:31;;;;;;;7.32;3.47;;;10.10;99.90;;;;;;5049380;28;20040;-65
2021/10/23 02:17:57;;;;;;;8.35;4.28;;;10.10;99.90;;;;;;5049663;28;20029;-65
2021/10/23 02:20:23;;;;;;;3.38;1.90;;;10.10;99.90;;;;;;5050562;28;20484;-64
2021/10/23 02:22:49;;;;;;;6.57;2.25;;;10.20;99.90;;;;;;5049480;28;20029;-65
2021/10/23 02:25:15;;;;;;;5.70;1.60;;;10.20;99.90;;;;;;5051450;28;20470;-64
2021/10/23 02:27:40;;;;;;;5.75;1.98;;;10.20;99.90;;;;;;5051261;28;20036;-66
2021/10/23 02:30:08;;;;;;;7.28;2.17;;;10.20;99.90;;;;;;5032899;28;20399;-65
2021/10/23 02:32:34;;;;;;;2.97;1.70;;;10.20;99.90;;;;;;5047411;28;20131;-64
2021/10/23 02:35:00;;;;;;;12.32;2.47;;;10.10;99.90;;;;;;5050608;28;20033;-66
2021/10/23 02:37:25;;;;;;;5.40;2.13;;;10.10;99.90;;;;;;5049629;28;20066;-65
2021/10/23 02:39:51;;;;;;;7.50;2.10;;;10.10;99.90;;;;;;5049785;28;20120;-66
2021/10/23 02:42:17;;;;;;;4.82;2.17;;;10.10;99.90;;;;;;5048996;28;20082;-66
2021/10/23 02:44:44;;;;;;;4.72;2.10;;;10.00;99.90;;;;;;5050414;28;20021;-65
2021/10/23 02:47:10;;;;;;;7.22;2.53;;;10.00;99.90;;;;;;5046254;28;20414;-65
2021/10/23 02:49:37;;;;;;;5.95;2.20;;;10.00;99.90;;;;;;5049552;28;20033;-64
2021/10/23 02:52:04;;;;;;;8.93;2.33;;;10.00;99.90;;;;;;5048480;28;20035;-65
2021/10/23 02:54:29;;;;;;;7.18;2.45;;;10.00;99.90;;;;;;5050239;28;20021;-65
2021/10/23 02:56:55;;;;;;;5.55;2.05;;;10.00;99.90;;;;;;5030393;28;20070;-66
2021/10/23 02:59:21;;;;;;;4.95;2.47;;;10.00;99.90;;;;;;5049559;28;20055;-64
2021/10/23 03:01:46;;;;;;;3.47;2.20;;;10.00;99.90;;;;;;5049198;28;20044;-64
2021/10/23 03:04:12;;;;;;;6.47;2.08;;;10.00;99.90;;;;;;5049050;28;20454;-66
2021/10/23 03:06:38;;;;;;;4.60;2.50;;;10.00;99.90;;;;;;5049587;28;20033;-64
2021/10/23 03:09:04;;;;;;;11.18;2.50;;;10.00;99.90;;;;;;5049206;28;20029;-66
2021/10/23 03:11:30;;;;;;;7.38;2.25;;;10.00;99.90;;;;;;5049445;28;20040;-66
2021/10/23 03:13:56;;;;;;;6.15;2.10;;;10.00;99.90;;;;;;5048961;28;20108;-65
2021/10/23 03:16:22;;;;;;;4.30;2.17;;;10.00;99.90;;;;;;5050064;28;20032;-66
2021/10/23 03:18:48;;;;;;;3.92;2.10;;;9.90;99.90;;;;;;5048273;28;20041;-64
2021/10/23 03:21:14;;;;;;;4.97;2.05;;;9.90;99.90;;;;;;5049789;28;20056;-64
2021/10/23 03:23:40;;;;;;;5.20;2.40;;;9.90;99.90;;;;;;5049245;28;20064;-66
2021/10/23 03:26:06;;;;;;;4.82;2.58;;;9.90;99.90;;;;;;5048318;28;20794;-64
2021/10/23 03:28:32;;;;;;;5.10;2.45;;;9.80;99.90;;;;;;5049054;28;20368;-65
2021/10/23 03:30:58;;;;;;;6.13;2.50;;;9.80;99.90;;;;;;5049703;28;20049;-65
2021/10/23 03:33:24;;;;;;;8.13;2.65;;;9.80;99.90;;;;;;5044489;28;20043;-66
2021/10/23 03:35:49;;;;;;;7.25;3.05;;;9.80;99.90;;;;;;5047185;28;20045;-67
2021/10/23 03:38:15;;;;;;;6.65;2.58;;;9.80;99.90;;;;;;5048609;28;20407;-67
2021/10/23 03:40:41;;;;;;;5.78;2.90;;;9.80;99.90;;;;;;5049538;28;20041;-66
2021/10/23 03:43:07;;;;;;;4.75;2.40;;;9.80;99.90;;;;;;5048212;28;20371;-67
2021/10/23 03:45:32;;;;;;;6.15;2.55;;;9.80;99.90;;;;;;5049726;28;20017;-67
2021/10/23 03:47:58;;;;;;;6.47;2.40;;;9.80;99.90;;;;;;5052909;28;20060;-65
2021/10/23 03:50:24;;;;;;;6.82;2.53;;;9.80;99.90;;;;;;5053052;28;20471;-66
2021/10/23 03:52:50;;;;;;;4.90;2.45;;;9.80;99.90;;;;;;5051939;28;20029;-66
2021/10/23 03:55:16;;;;;;;7.18;2.78;;;9.80;99.90;;;;;;5048606;28;20024;-64
2021/10/23 03:57:41;;;;;;;5.63;2.40;;;9.80;99.90;;;;;;5048154;28;20112;-66
2021/10/23 04:00:08;;;;;;;6.15;2.22;;;9.80;99.90;;;;;;5052669;28;20029;-65
2021/10/23 04:02:34;;;;;;;7.10;2.45;;;9.80;99.90;;;;;;5052518;28;20784;-64
2021/10/23 04:05:00;;;;;;;6.78;2.17;;;9.80;99.90;;;;;;5053358;28;20486;-65
2021/10/23 04:07:26;;;;;;;5.43;2.25;;;9.80;99.90;;;;;;5052062;28;20063;-67
2021/10/23 04:09:51;;;;;;;5.63;2.50;;;9.80;99.90;;;;;;5052076;28;20069;-66
2021/10/23 04:12:17;;;;;;;8.63;2.20;;;9.80;99.90;;;;;;5051628;28;20036;-65
2021/10/23 04:14:43;;;;;;;9.82;2.70;;;9.70;99.90;;;;;;5051912;28;20028;-64
2021/10/23 04:17:08;;;;;;;5.15;2.00;;;9.70;99.90;;;;;;5051444;28;20037;-65
2021/10/23 04:19:34;;;;;;;5.97;2.72;;;9.70;99.90;;;;;;5051828;28;20108;-66
2021/10/23 04:22:00;;;;;;;6.32;2.50;;;9.70;99.90;;;;;;5050874;28;20443;-66
2021/10/23 04:24:26;;;;;;;4.90;2.25;;;9.70;99.90;;;;;;5042717;28;20442;-66
2021/10/23 04:26:52;;;;;;;6.05;2.63;;;9.70;99.90;;;;;;5035164;28;20041;-67
2021/10/23 04:29:20;;;;;;;5.43;2.70;;;9.70;99.90;;;;;;5048585;28;20100;-64
2021/10/23 04:31:46;;;;;;;5.80;2.50;;;9.70;99.90;;;;;;5052606;28;20562;-66
2021/10/23 04:34:12;;;;;;;4.45;2.30;;;9.60;99.90;;;;;;5051951;28;20100;-65
2021/10/23 04:36:37;;;;;;;5.07;2.10;;;9.60;99.90;;;;;;5052380;28;20061;-65
2021/10/23 04:39:03;;;;;;;5.45;2.58;;;9.70;99.90;;;;;;5051469;28;20067;-65
2021/10/23 04:41:29;;;;;;;4.85;2.50;;;9.70;99.90;;;;;;5048736;28;20029;-65
2021/10/23 04:43:55;;;;;;;5.40;2.03;;;9.70;99.90;;;;;;5049832;28;20435;-65
2021/10/23 04:46:20;;;;;;;6.90;2.38;;;9.60;99.90;;;;;;5051992;28;20390;-66
2021/10/23 04:48:46;;;;;;;6.32;2.33;;;9.60;99.90;;;;;;5045311;28;20147;-65
2021/10/23 04:51:12;;;;;;;4.97;2.22;;;9.60;99.90;;;;;;5052328;28;20028;-65
2021/10/23 04:53:38;;;;;;;4.47;2.20;;;9.60;99.90;;;;;;5048671;28;20037;-67
2021/10/23 04:56:04;;;;;;;4.15;1.83;;;9.60;99.90;;;;;;5034227;28;20119;-65
2021/10/23 04:58:29;;;;;;;8.52;2.40;;;9.60;99.90;;;;;;5050938;28;20495;-66
2021/10/23 05:00:56;;;;;;;4.50;2.28;;;9.60;99.90;;;;;;5051664;28;20505;-66
2021/10/23 05:03:22;;;;;;;4.75;2.20;;;9.60;99.90;;;;;;5050430;28;20086;-66
2021/10/23 05:05:48;;;;;;;4.00;2.30;;;9.70;99.90;;;;;;5052286;28;20452;-65
2021/10/23 05:08:13;;;;;;;8.30;2.50;;;9.70;99.90;;;;;;5050429;28;20024;-65
2021/10/23 05:10:39;;;;;;;8.20;2.80;;;9.60;99.90;;;;;;5051817;28;20059;-65
2021/10/23 05:13:05;;;;;;;6.35;2.25;;;9.60;99.90;;;;;;5050738;28;20025;-65
2021/10/23 05:15:31;;;;;;;8.35;2.90;;;9.60;99.90;;;;;;5050996;28;20466;-67
2021/10/23 05:17:57;;;;;;;13.05;3.03;;;9.60;99.90;;;;;;5040808;28;20033;-63
2021/10/23 05:20:24;;;;;;;10.52;2.95;;;9.70;99.90;;;;;;5028941;28;20033;-67
2021/10/23 05:22:50;;;;;;;6.65;3.13;;;9.80;99.90;;;;;;5050045;28;20028;-65
2021/10/23 05:25:16;;;;;;;14.77;4.22;;;9.80;99.90;;;;;;5050532;28;20475;-65
2021/10/23 05:27:41;;;;;;;7.65;3.20;;;9.80;99.90;;;;;;5050432;28;20455;-66
2021/10/23 05:30:07;;;;;;;8.27;3.10;;;9.80;99.90;;;;;;5051497;28;20111;-65
2021/10/23 05:32:33;;;;;;;8.90;3.33;;;9.80;99.90;;;;;;5048841;28;20044;-65
2021/10/23 05:35:02;;;;;;;8.95;3.13;;;9.80;99.90;;;;;;5026145;28;20111;-65
2021/10/23 05:37:27;;;;;;;7.78;3.70;;;9.80;99.90;;;;;;5049779;28;20123;-64
2021/10/23 05:39:53;;;;;;;6.95;3.67;;;9.90;99.90;;;;;;5031521;28;20033;-65
2021/10/23 05:42:19;;;;;;;6.30;3.33;;;9.80;99.90;;;;;;5050833;28;20029;-65
2021/10/23 05:44:44;;;;;;;7.32;3.20;;;9.80;99.90;;;;;;5050435;28;20037;-65
2021/10/23 05:47:10;;;;;;;8.75;3.08;;;9.80;99.90;;;;;;5050940;28;20047;-64
2021/10/23 05:49:36;;;;;;;6.35;2.97;;;9.90;99.90;;;;;;5049788;28;20120;-65
2021/10/23 05:52:02;;;;;;;7.55;3.30;;;9.80;99.90;;;;;;5050822;28;20478;-66
2021/10/23 05:54:28;;;;;;;5.82;2.95;;;9.90;99.90;;;;;;5049594;28;20053;-65
2021/10/23 05:56:54;;;;;;;12.45;3.20;;;9.90;99.90;;;;;;5051341;28;20029;-66
2021/10/23 05:59:21;;;;;;;5.35;3.15;;;9.90;99.90;;;;;;5049650;28;20387;-64
2021/10/23 06:01:55;;;;;;;11.15;3.20;;;9.80;99.90;;;;;;5051180;28;20482;-64
2021/10/23 06:04:21;;;;;;;10.23;3.08;;;9.90;99.90;;;;;;5050087;28;20036;-66
2021/10/23 06:06:47;;;;;;;8.13;3.33;;;9.90;99.90;;;;;;5051514;28;20021;-66
2021/10/23 06:09:12;;;;;;;6.57;3.15;;;9.90;99.90;;;;;;5049042;28;20032;-64
2021/10/23 06:11:38;;;;;;;6.32;2.70;;;9.90;99.90;;;;;;5044100;28;20530;-67
2021/10/23 06:14:04;;;;;;;8.38;3.33;;;9.80;99.90;;;;;;5045542;28;20033;-65
2021/10/23 06:16:30;;;;;;;10.95;2.92;;;9.80;99.90;;;;;;5049255;28;20040;-65
2021/10/23 06:18:56;;;;;;;8.48;2.97;;;9.80;99.90;;;;;;5048792;28;20039;-65
2021/10/23 06:21:21;;;;;;;7.88;3.03;;;10.00;99.90;;;;;;5049332;28;20398;-66
2021/10/23 06:23:47;;;;;;;5.28;2.65;;;10.00;99.90;;;;;;5032036;28;20034;-69
2021/10/23 06:26:13;;;;;;;16.05;3.75;;;10.00;99.90;;;;;;5050237;28;20048;-65
2021/10/23 06:28:39;;;;;;;5.88;2.67;;;9.90;99.90;;;;;;5050221;28;20037;-65
2021/10/23 06:31:06;;;;;;;9.57;2.90;;;9.90;99.90;;;;;;5049834;28;20068;-65
2021/10/23 06:33:33;;;;;;;5.88;3.05;;;10.00;99.90;;;;;;5049087;28;20132;-66
2021/10/23 06:35:59;;;;;;;6.97;3.13;;;10.00;99.90;;;;;;5049864;28;20120;-64
2021/10/23 06:38:25;;;;;;;6.38;2.85;;;10.00;99.90;;;;;;5049494;28;20121;-64
2021/10/23 06:40:51;;;;;;;9.38;3.33;;;10.00;99.90;;;;;;5048784;28;20148;-64
2021/10/23 06:43:17;;;;;;;8.10;3.10;;;9.90;99.90;;;;;;5044946;28;20746;-65
2021/10/23 06:45:43;;;;;;;15.30;2.90;;;9.90;99.90;;;;;;5049186;28;20386;-66
2021/10/23 06:48:10;;;;;;;9.07;2.95;;;9.90;99.90;;;;;;5049335;28;20028;-68
2021/10/23 06:50:36;;;;;;;9.60;2.97;;;9.90;99.90;;;;;;5049515;28;20029;-64
2021/10/23 06:53:02;;;;;;;12.90;4.03;;;9.90;99.90;;;;;;5048009;28;20048;-65
2021/10/23 06:55:28;;;;;;;12.15;3.22;;;10.00;99.90;;;;;;5044790;28;20021;-65
2021/10/23 06:57:54;;;;;;;12.85;3.67;;;9.90;99.90;;;;;;5049142;28;20061;-66
2021/10/23 07:00:19;;;;;;;6.20;3.05;;;10.00;99.90;;;;;;5049108;28;20067;-66
2021/10/23 07:02:45;;;;;;;6.65;2.95;;;9.90;99.90;;;;;;5045089;28;20111;-65
2021/10/23 07:05:13;;;;;;;7.03;3.13;;;9.90;99.90;;;;;;5048743;28;20497;-65
2021/10/23 07:07:40;;;;;;;10.52;3.30;;;9.90;99.90;;;;;;5049715;28;20068;-67
2021/10/23 07:10:06;;;;;;;6.40;2.90;;;10.00;99.90;;;;;;5048502;28;20037;-65
2021/10/23 07:12:32;;;;;;;9.02;3.20;;;10.10;99.90;;;;;;5048706;28;20399;-65
2021/10/23 07:14:58;;;;;;;8.43;3.10;;;10.10;99.90;;;;;;5048374;28;20029;-65
2021/10/23 07:17:24;;;;;;;11.75;3.03;;;10.10;99.90;;;;;;5045757;28;20037;-64
2021/10/23 07:19:52;;;;;;;12.07;3.47;;;10.20;99.90;;;;;;5026150;28;20045;-66
2021/10/23 07:22:18;;;;;;;10.77;3.83;;;10.20;99.90;;;;;;5042975;28;20029;-65
2021/10/23 07:24:44;;;;;;;9.45;2.83;;;10.20;99.90;;;;;;5046312;28;20026;-65
2021/10/23 07:27:10;;;;;;;9.40;3.90;;;10.20;99.90;;;;;;5039884;28;20095;-63
2021/10/23 07:29:36;;;;;;;8.95;3.10;;;10.20;99.90;;;;;;5037669;28;20021;-64
2021/10/23 07:32:02;;;;;;;10.35;3.35;;;10.20;99.90;;;;;;5050907;28;20037;-66
2021/10/23 07:34:27;;;;;;;10.52;3.25;;;10.30;99.90;;;;;;5051034;28;20036;-64
2021/10/23 07:36:53;;;;;;;10.52;3.30;;;10.30;99.90;;;;;;5053227;28;20391;-66
2021/10/23 07:39:19;;;;;;;13.55;3.35;;;10.30;99.90;;;;;;5049702;28;20111;-65
2021/10/23 07:41:46;;;;;;;12.32;2.92;;;10.30;99.90;;;;;;5048061;28;20060;-66
2021/10/23 07:44:15;;;;;;;10.05;3.67;;;10.30;99.90;;;;;;5052111;28;20032;-64
2021/10/23 07:46:41;;;;;;;12.55;3.92;;;10.40;99.90;;;;;;5051198;28;20543;-63
2021/10/23 07:49:07;;;;;;;9.80;3.78;;;10.40;99.90;;;;;;5046348;28;20033;-65
2021/10/23 07:51:40;;;;;;;10.98;3.75;;;10.40;99.90;;;;;;5041291;28;20021;-64
2021/10/23 07:54:10;;;;;;;8.73;3.40;;;10.50;99.90;;;;;;5042394;28;20025;-67
2021/10/23 07:56:40;;;;;;;13.35;3.53;;;10.50;99.90;;;;;;5052272;28;20060;-64
2021/10/23 07:59:05;;;;;;;46.47;19.90;;;10.60;99.90;;;;;;5048345;28;20112;-65
2021/10/23 08:01:31;;;;;;;12.10;3.38;;;10.60;99.90;;;;;;5053037;28;20108;-67
2021/10/23 08:03:57;;;;;;;22.48;8.75;;;10.60;99.90;;;;;;5051631;28;20017;-68
2021/10/23 08:06:22;;;;;;;24.95;11.20;;;10.60;99.90;;;;;;5052719;28;20033;-66
2021/10/23 08:08:49;;;;;;;15.98;4.35;;;10.60;99.90;;;;;;5052466;28;20049;-66
2021/10/23 08:11:14;;;;;;;25.58;12.32;;;10.60;99.90;;;;;;5052869;28;20036;-66
2021/10/23 08:13:40;;;;;;;17.15;7.88;;;10.70;99.90;;;;;;5033567;28;20025;-66
2021/10/23 08:16:06;;;;;;;12.38;6.03;;;10.70;99.90;;;;;;5052060;28;20185;-65
2021/10/23 08:18:33;;;;;;;15.27;4.40;;;10.80;99.90;;;;;;5051385;28;20040;-65
2021/10/23 08:21:00;;;;;;;12.52;4.47;;;10.90;99.90;;;;;;5052267;28;20442;-66
2021/10/23 08:23:27;;;;;;;9.60;4.30;;;10.90;99.90;;;;;;5052365;28;20040;-66
2021/10/23 08:25:54;;;;;;;12.73;4.05;;;10.90;99.90;;;;;;5051575;28;20033;-66
2021/10/23 08:28:21;;;;;;;10.85;5.10;;;10.90;99.90;;;;;;5052325;28;20033;-66
2021/10/23 08:30:47;;;;;;;12.57;3.88;;;11.00;99.90;;;;;;5051510;28;20403;-65
2021/10/23 08:33:13;;;;;;;10.57;3.58;;;11.00;99.90;;;;;;5052044;28;20073;-65
2021/10/23 08:35:39;;;;;;;11.90;4.00;;;11.00;99.90;;;;;;5033336;28;20036;-66
2021/10/23 08:38:05;;;;;;;11.80;3.22;;;11.00;99.90;;;;;;5052205;28;20037;-65
2021/10/23 08:40:31;;;;;;;10.75;3.13;;;11.10;99.90;;;;;;5051634;28;20090;-65
2021/10/23 08:42:57;;;;;;;10.18;3.50;;;11.20;99.90;;;;;;5052294;28;20095;-66
2021/10/23 08:45:23;;;;;;;10.77;3.22;;;11.30;99.90;;;;;;5050626;28;20544;-67
2021/10/23 08:47:49;;;;;;;11.05;3.50;;;11.30;99.90;;;;;;5051985;28;20112;-66
2021/10/23 08:50:20;;;;;;;9.65;3.22;;;11.40;99.90;;;;;;5051733;28;20028;-65
2021/10/23 08:52:53;;;;;;;9.43;2.75;;;11.40;99.90;;;;;;5051606;28;20029;-65
2021/10/23 08:55:22;;;;;;;7.90;2.72;;;11.40;99.90;;;;;;5051404;28;20025;-66
2021/10/23 08:57:49;;;;;;;5.60;3.13;;;11.40;99.90;;;;;;5051791;28;20091;-66
2021/10/23 09:00:15;;;;;;;7.40;3.00;;;11.50;99.90;;;;;;5033531;28;20110;-66
2021/10/23 09:02:41;;;;;;;6.90;2.83;;;11.50;99.90;;;;;;5052136;28;20021;-66
2021/10/23 09:05:09;;;;;;;9.10;2.95;;;11.60;99.90;;;;;;5051294;28;20090;-65
2021/10/23 09:07:48;;;;;;;6.47;2.70;;;11.60;99.90;;;;;;5034173;28;20124;-66
2021/10/23 09:10:25;;;;;;;7.18;2.78;;;11.70;99.90;;;;;;5051191;28;20020;-66
2021/10/23 09:13:03;;;;;;;11.48;2.85;;;11.80;99.90;;;;;;5051585;28;20115;-67
2021/10/23 09:15:42;;;;;;;9.07;3.40;;;11.90;99.90;;;;;;5049233;28;20120;-66
2021/10/23 09:18:10;;;;;;;7.03;3.45;;;11.80;99.90;;;;;;5051520;28;20025;-65
2021/10/23 09:20:38;;;;;;;8.60;3.28;;;11.80;99.90;;;;;;5037483;28;20029;-66
2021/10/23 09:23:04;;;;;;;14.25;3.92;;;11.70;99.90;;;;;;5051440;28;20033;-65
2021/10/23 09:25:35;;;;;;;9.35;2.90;;;11.80;99.90;;;;;;5049899;28;20029;-67
2021/10/23 09:28:08;;;;;;;15.43;2.83;;;11.90;99.90;;;;;;5034301;28;20036;-66
2021/10/23 09:30:49;;;;;;;21.55;3.40;;;12.00;99.90;;;;;;5031640;28;20112;-64
2021/10/23 09:33:20;;;;;;;12.55;3.30;;;12.00;99.90;;;;;;5051247;28;20028;-64
2021/10/23 09:35:48;;;;;;;8.13;3.00;;;12.10;99.90;;;;;;5050247;28;20047;-65
2021/10/23 09:38:18;;;;;;;8.65;3.00;;;12.10;99.90;;;;;;5051222;28;20052;-66
2021/10/23 09:40:46;;;;;;;5.70;2.63;;;12.10;99.90;;;;;;5050475;28;20106;-65
2021/10/23 09:43:25;;;;;;;9.02;2.75;;;12.10;99.90;;;;;;5050942;28;20405;-66
2021/10/23 09:45:59;;;;;;;8.80;2.85;;;12.20;99.90;;;;;;5049713;28;20057;-66
2021/10/23 09:48:31;;;;;;;;;;;12.20;99.90;;;;;;5049752;28;20147;-65
2021/10/23 09:51:15;;;;;;;10.52;2.45;;;12.20;99.90;;;;;;5049377;28;19909;-65
2021/10/23 09:53:42;;;;;;;9.57;2.67;;;12.30;99.90;;;;;;5048001;28;20067;-64
2021/10/23 09:56:10;;;;;;;11.15;3.03;;;12.30;99.90;;;;;;5046018;28;20044;-64
2021/10/23 09:58:36;;;;;;;8.50;2.72;;;12.30;99.90;;;;;;5046489;28;20033;-66
2021/10/23 10:01:02;;;;;;;7.90;2.67;;;12.40;99.90;;;;;;5049438;28;20037;-65
2021/10/23 10:03:29;;;;;;;8.20;2.45;;;12.40;99.90;;;;;;5048165;28;20040;-65
2021/10/23 10:05:59;;;;;;;6.07;2.90;;;12.40;99.90;;;;;;5048406;28;20391;-64
2021/10/23 10:08:27;;;;;;;10.43;2.90;;;12.50;99.90;;;;;;5050092;28;20121;-64
2021/10/23 10:10:55;;;;;;;6.47;2.80;;;12.50;99.90;;;;;;5026164;28;20037;-66
2021/10/23 10:13:25;;;;;;;8.23;2.47;;;12.50;99.90;;;;;;5043777;28;20036;-65
2021/10/23 10:15:54;;;;;;;9.57;3.22;;;12.50;99.90;;;;;;5043344;28;20033;-67
2021/10/23 10:18:21;;;;;;;13.27;2.63;;;12.50;99.90;;;;;;5036397;28;20034;-67
2021/10/23 10:21:07;;;;;;;4.80;2.15;;;12.50;99.90;;;;;;5037815;28;20057;-65
2021/10/23 10:23:44;;;;;;;8.23;1.92;;;12.70;99.90;;;;;;5049821;28;20040;-65
2021/10/23 10:26:19;;;;;;;6.10;2.35;;;12.60;99.90;;;;;;5026873;28;20439;-66
2021/10/23 10:29:07;;;;;;;7.80;2.28;;;12.60;99.90;;;;;;5048773;28;20029;-63
2021/10/23 10:31:58;;;;;;;9.13;2.78;;;12.60;99.90;;;;;;5048764;28;20041;-66
2021/10/23 10:34:42;;;;;;;8.07;2.08;;;12.70;99.90;;;;;;5050617;28;20021;-65
2021/10/23 10:40:16;;;;;;;7.97;2.47;;;12.80;99.90;;;;;;5048589;28;20037;-66
2021/10/23 10:42:53;;;;;;;7.60;2.40;;;12.80;99.90;;;;;;5050359;28;20553;-67
2021/10/23 10:45:34;;;;;;;15.52;2.60;;;12.80;99.90;;;;;;5045237;28;20052;-66
2021/10/23 10:48:21;;;;;;;6.43;2.10;;;13.00;99.90;;;;;;5050283;28;20057;-66
2021/10/23 10:50:49;;;;;;;6.85;2.13;;;13.10;99.90;;;;;;5049611;28;20497;-65
2021/10/23 10:53:27;;;;;;;6.13;2.58;;;13.20;99.90;;;;;;5048249;28;20490;-65
2021/10/23 10:56:06;;;;;;;6.10;2.28;;;13.20;99.90;;;;;;5052101;28;20021;-66
2021/10/23 10:58:48;;;;;;;3.75;1.77;;;13.20;99.90;;;;;;5039699;28;20041;-67
2021/10/23 11:01:16;;;;;;;6.03;1.60;;;13.20;99.90;;;;;;5052645;28;20032;-67
2021/10/23 11:03:51;;;;;;;7.20;1.83;;;13.20;99.90;;;;;;5054353;28;20492;-64
2021/10/23 11:06:32;;;;;;;9.90;1.95;;;13.30;99.90;;;;;;5053453;28;20029;-65
2021/10/23 11:09:16;;;;;;;9.32;2.00;;;13.30;99.90;;;;;;5054027;28;20359;-64
2021/10/23 11:11:47;;;;;;;3.65;1.67;;;13.40;99.90;;;;;;5049221;28;20426;-66
2021/10/23 11:14:22;;;;;;;8.15;1.70;;;13.30;99.90;;;;;;5053818;28;20033;-65
2021/10/23 11:16:54;;;;;;;5.88;1.52;;;13.40;99.90;;;;;;5053127;28;20041;-65
2021/10/23 11:19:30;;;;;;;6.13;1.85;;;13.30;99.90;;;;;;5054112;28;20056;-65
2021/10/23 11:21:59;;;;;;;8.25;3.10;;;13.40;99.90;;;;;;5052540;28;20031;-66
2021/10/23 11:24:39;;;;;;;3.88;1.30;;;13.40;99.90;;;;;;5053791;28;20044;-64
2021/10/23 11:27:04;;;;;;;6.65;1.60;;;13.50;99.90;;;;;;5051597;28;20116;-65
2021/10/23 11:29:30;;;;;;;6.63;1.65;;;13.60;99.90;;;;;;5042878;28;20152;-66
2021/10/23 11:32:00;;;;;;;4.22;1.35;;;13.60;99.90;;;;;;5037427;28;20058;-64
2021/10/23 11:34:34;;;;;;;5.63;1.80;;;13.70;99.90;;;;;;5053898;28;20029;-65
2021/10/23 11:37:07;;;;;;;16.23;9.63;;;13.70;99.90;;;;;;5051292;28;20463;-66
2021/10/23 11:39:36;;;;;;;5.63;2.60;;;13.70;99.90;;;;;;5053465;28;20037;-66
2021/10/23 11:42:44;;;;;;;3.95;1.38;;;13.80;99.90;;;;;;5053115;28;20497;-65
2021/10/23 11:45:25;;;;;;;5.47;1.45;;;13.90;99.90;;;;;;5040816;28;20088;-64
2021/10/23 11:47:53;;;;;;;4.88;1.52;;;14.00;99.90;;;;;;5044353;28;20029;-64
2021/10/23 11:50:27;;;;;;;5.00;1.90;;;14.00;99.90;;;;;;5045573;28;20025;-65
2021/10/23 11:52:54;;;;;;;5.70;1.77;;;14.10;99.90;;;;;;5049730;28;20033;-66
2021/10/23 11:55:36;;;;;;;5.07;1.60;;;14.10;99.90;;;;;;5052904;28;20044;-65
2021/10/23 11:58:07;;;;;;;6.88;1.73;;;14.10;99.90;;;;;;5048836;28;20089;-63
2021/10/23 12:00:35;;;;;;;11.57;1.83;;;14.00;99.90;;;;;;5032536;28;20033;-66
2021/10/23 12:03:04;;;;;;;8.20;1.77;;;14.10;99.90;;;;;;5043621;28;20040;-63
2021/10/23 12:05:37;;;;;;;25.20;18.80;;;14.10;99.90;;;;;;5050491;28;20383;-65
2021/10/23 12:08:13;;;;;;;3.28;1.50;;;14.10;99.90;;;;;;5051150;28;20025;-66
2021/10/23 12:11:17;;;;;;;3.60;1.30;;;14.10;99.90;;;;;;5049951;28;20486;-65
2021/10/23 12:14:03;;;;;;;4.13;1.35;;;14.10;99.90;;;;;;5052061;28;20021;-66
2021/10/23 12:16:49;;;;;;;6.78;1.70;;;14.10;99.90;;;;;;5047563;28;20021;-65
2021/10/23 12:19:18;;;;;;;7.28;2.03;;;14.10;99.90;;;;;;5052119;28;20033;-65
2021/10/23 12:21:52;;;;;;;4.63;1.73;;;14.10;99.90;;;;;;5049676;28;20044;-67
2021/10/23 12:24:25;;;;;;;5.53;1.45;;;14.20;99.90;;;;;;5039385;28;20033;-64
2021/10/23 12:27:05;;;;;;;10.25;5.70;;;14.20;99.90;;;;;;5031734;28;20047;-66
2021/10/23 12:29:47;;;;;;;5.63;1.58;;;14.20;99.90;;;;;;5044843;28;20112;-65
2021/10/23 12:32:49;;;;;;;5.60;1.85;;;14.10;99.90;;;;;;5046557;28;20415;-68
2021/10/23 12:35:30;;;;;;;11.82;4.97;;;14.10;99.90;;;;;;5049587;28;20021;-69
2021/10/23 12:38:08;;;;;;;5.53;2.03;;;14.20;99.90;;;;;;5034158;28;20040;-66
2021/10/23 12:40:39;;;;;;;12.50;3.53;;;14.20;99.90;;;;;;5040761;28;20022;-67
2021/10/23 12:43:14;;;;;;;5.28;2.65;;;14.30;99.90;;;;;;5049812;28;20040;-64
2021/10/23 12:45:46;;;;;;;15.02;2.05;;;14.30;99.90;;;;;;5050905;28;20700;-65
2021/10/23 12:48:18;;;;;;;9.15;2.35;;;14.40;99.90;;;;;;5029180;28;20047;-66
2021/10/23 12:50:49;;;;;;;5.75;3.10;;;14.40;99.90;;;;;;5049800;28;20060;-66
2021/10/23 12:53:20;;;;;;;5.13;1.70;;;14.40;99.90;;;;;;5051170;28;20037;-65
2021/10/23 12:55:47;;;;;;;13.60;7.05;;;14.50;99.90;;;;;;5047748;28;20773;-67